createdAt,value
2022-07-29T00:00:25.029Z,11.36
2022-07-29T00:03:27.978Z,11.37
2022-07-29T00:06:36.317Z,11.35
2022-07-29T00:09:51.086Z,11.26
2022-07-29T00:12:59.677Z,11.21
2022-07-29T00:16:04.849Z,11.16
2022-07-29T00:19:12.756Z,11.09
2022-07-29T00:22:13.373Z,11.05
2022-07-29T00:25:25.992Z,11.03
2022-07-29T00:28:25.881Z,11.02
2022-07-29T00:31:37.775Z,10.99
2022-07-29T00:35:03.423Z,10.93
2022-07-29T00:38:10.051Z,10.90
2022-07-29T00:41:09.994Z,10.86
2022-07-29T00:44:17.208Z,10.88
2022-07-29T00:47:21.782Z,10.80
2022-07-29T00:50:29.849Z,10.73
2022-07-29T00:53:29.758Z,10.67
2022-07-29T00:56:43.701Z,10.57
2022-07-29T00:59:44.516Z,10.51
2022-07-29T01:02:52.693Z,10.58
2022-07-29T01:06:02.820Z,10.52
2022-07-29T01:09:10.650Z,10.50
2022-07-29T01:12:11.968Z,10.51
2022-07-29T01:15:18.071Z,10.46
2022-07-29T01:18:40.658Z,10.49
2022-07-29T01:22:01.052Z,10.46
2022-07-29T01:25:21.257Z,10.44
2022-07-29T01:28:54.074Z,10.56
2022-07-29T01:32:27.658Z,10.49
2022-07-29T01:35:34.130Z,10.51
2022-07-29T01:38:43.748Z,10.57
2022-07-29T01:41:50.601Z,10.63
2022-07-29T01:45:08.673Z,10.63
2022-07-29T01:48:21.689Z,10.61
2022-07-29T01:51:28.333Z,10.59
2022-07-29T01:54:40.689Z,10.65
2022-07-29T01:57:45.506Z,10.58
2022-07-29T02:00:57.688Z,10.65
2022-07-29T02:04:05.694Z,10.62
2022-07-29T02:07:10.557Z,10.58
2022-07-29T02:10:19.669Z,10.65
2022-07-29T02:13:34.066Z,10.66
2022-07-29T02:16:38.092Z,10.67
2022-07-29T02:19:46.668Z,10.60
2022-07-29T02:22:47.769Z,10.56
2022-07-29T02:25:56.646Z,10.59
2022-07-29T02:29:05.873Z,10.54
2022-07-29T02:32:18.182Z,10.57
2022-07-29T02:35:20.770Z,10.59
2022-07-29T02:38:47.011Z,10.64
2022-07-29T02:41:50.766Z,10.60
2022-07-29T02:44:59.227Z,10.65
2022-07-29T02:48:12.890Z,10.67
2022-07-29T02:51:43.433Z,10.66
2022-07-29T02:54:52.723Z,10.73
2022-07-29T02:57:57.829Z,10.71
2022-07-29T03:01:09.802Z,10.75
2022-07-29T03:04:32.923Z,10.82
2022-07-29T03:07:41.819Z,10.87
2022-07-29T03:10:46.215Z,10.88
2022-07-29T03:13:52.713Z,10.86
2022-07-29T03:17:00.737Z,10.98
2022-07-29T03:20:06.489Z,11.08
2022-07-29T03:23:16.151Z,11.11
2022-07-29T03:26:17.318Z,11.10
2022-07-29T03:29:33.981Z,11.18
2022-07-29T03:32:37.782Z,11.18
2022-07-29T03:41:45.734Z,11.31
2022-07-29T03:44:50.208Z,11.36
2022-07-29T03:48:03.066Z,11.38
2022-07-29T03:51:12.030Z,11.42
2022-07-29T03:54:13.584Z,11.44
2022-07-29T03:57:22.773Z,11.40
2022-07-29T04:00:24.162Z,11.50
2022-07-29T04:03:53.596Z,11.48
2022-07-29T04:06:56.831Z,11.60
2022-07-29T04:10:11.013Z,11.63
2022-07-29T04:13:14.643Z,11.71
2022-07-29T04:16:22.164Z,11.76
2022-07-29T04:19:32.206Z,11.87
2022-07-29T04:22:42.779Z,12.01
2022-07-29T04:25:55.631Z,12.07
2022-07-29T04:28:57.663Z,12.17
2022-07-29T04:32:10.780Z,12.24
2022-07-29T04:35:10.999Z,12.19
2022-07-29T04:38:19.670Z,12.19
2022-07-29T04:41:35.044Z,12.26
2022-07-29T04:44:44.670Z,12.38
2022-07-29T04:47:50.498Z,12.50
2022-07-29T04:50:59.818Z,12.72
2022-07-29T04:54:02.013Z,12.79
2022-07-29T04:57:08.907Z,13.06
2022-07-29T05:00:15.115Z,13.53
2022-07-29T05:03:37.630Z,13.93
2022-07-29T05:06:43.211Z,13.65
2022-07-29T05:09:52.730Z,13.61
2022-07-29T05:12:56.899Z,13.47
2022-07-29T05:16:13.759Z,13.18
2022-07-29T05:19:14.690Z,13.19
2022-07-29T05:22:21.928Z,13.22
2022-07-29T05:25:45.751Z,13.52
2022-07-29T05:28:52.858Z,13.59
2022-07-29T05:32:05.788Z,13.92
2022-07-29T05:35:08.102Z,14.03
2022-07-29T05:38:14.880Z,14.10
2022-07-29T05:41:16.675Z,14.05
2022-07-29T05:44:25.333Z,14.20
2022-07-29T05:47:28.449Z,14.49
2022-07-29T05:50:36.085Z,14.64
2022-07-29T05:53:48.010Z,14.92
2022-07-29T05:56:56.747Z,14.96
2022-07-29T06:00:03.845Z,14.96
2022-07-29T06:03:12.781Z,15.19
2022-07-29T06:06:25.018Z,15.32
2022-07-29T06:09:27.189Z,15.67
2022-07-29T06:12:34.022Z,16.15
2022-07-29T06:15:35.235Z,16.25
2022-07-29T06:18:45.064Z,16.45
2022-07-29T06:22:00.933Z,16.51
2022-07-29T06:25:18.167Z,16.39
2022-07-29T06:28:21.203Z,16.71
2022-07-29T06:31:31.020Z,16.54
2022-07-29T06:34:52.203Z,17.02
2022-07-29T06:38:31.649Z,17.14
2022-07-29T06:41:39.591Z,17.46
2022-07-29T06:44:50.619Z,17.40
2022-07-29T06:47:53.044Z,17.79
2022-07-29T06:50:59.187Z,17.63
2022-07-29T06:54:15.743Z,17.54
2022-07-29T06:57:32.648Z,18.04
2022-07-29T07:00:41.857Z,18.15
2022-07-29T07:08:59.652Z,18.94
2022-07-29T07:25:26.700Z,20.43
2022-07-29T07:28:35.846Z,20.63
2022-07-29T07:32:00.476Z,20.56
2022-07-29T07:35:34.490Z,20.33
2022-07-29T08:48:36.502Z,27.08
2022-07-29T09:00:47.879Z,28.95
2022-07-29T09:03:54.138Z,28.56
2022-07-29T09:07:12.138Z,29.30
2022-07-29T09:10:29.057Z,27.93
2022-07-29T09:14:13.387Z,28.32
2022-07-29T09:17:29.163Z,29.29
2022-07-29T09:20:54.724Z,29.00
2022-07-29T09:27:41.716Z,30.87
2022-07-29T09:30:46.971Z,31.54
2022-07-29T09:34:09.196Z,29.39
2022-07-29T10:03:19.277Z,24.21
2022-07-29T10:33:52.535Z,24.86
2022-07-29T10:55:19.049Z,24.12
2022-07-29T11:44:05.928Z,26.14
2022-07-29T12:19:03.602Z,25.27
2022-07-29T12:44:33.680Z,26.11
2022-07-29T13:05:33.093Z,25.70
2022-07-29T13:13:09.538Z,24.85
2022-07-29T13:45:42.180Z,23.86
2022-07-29T14:11:41.222Z,23.27
2022-07-29T14:28:09.043Z,23.27
2022-07-29T14:32:16.170Z,23.32
2022-07-29T14:36:32.443Z,22.99
2022-07-29T15:06:31.696Z,23.26
2022-07-29T15:36:21.219Z,23.13
2022-07-29T15:40:34.478Z,23.20
2022-07-29T16:26:35.911Z,22.45
2022-07-29T16:34:37.610Z,22.25
2022-07-29T16:42:45.973Z,22.08
2022-07-29T16:46:18.521Z,22.11
2022-07-29T16:49:47.709Z,21.98
2022-07-29T16:59:59.943Z,21.64
2022-07-29T17:03:08.610Z,21.42
2022-07-29T17:06:21.945Z,21.40
2022-07-29T17:09:40.207Z,21.31
2022-07-29T17:13:03.458Z,21.32
2022-07-29T17:16:20.122Z,21.14
2022-07-29T17:19:48.733Z,21.15
2022-07-29T17:22:54.411Z,20.98
2022-07-29T17:26:04.782Z,20.89
2022-07-29T17:29:09.284Z,20.77
2022-07-29T17:32:34.329Z,20.72
2022-07-29T17:35:58.006Z,20.62
2022-07-29T17:39:04.062Z,20.56
2022-07-29T17:42:12.803Z,20.55
2022-07-29T17:45:16.177Z,20.50
2022-07-29T17:48:24.851Z,20.48
2022-07-29T17:51:41.309Z,20.40
2022-07-29T17:54:57.751Z,20.39
2022-07-29T17:58:09.933Z,20.35
2022-07-29T18:01:13.580Z,20.39
2022-07-29T18:07:57.987Z,20.28
2022-07-29T18:11:16.767Z,20.32
2022-07-29T18:14:20.560Z,20.31
2022-07-29T18:17:52.778Z,20.24
2022-07-29T18:21:10.991Z,20.18
2022-07-29T18:24:16.243Z,20.19
2022-07-29T18:27:31.907Z,20.08
2022-07-29T18:30:34.083Z,19.99
2022-07-29T18:33:47.272Z,19.96
2022-07-29T18:37:13.635Z,19.88
2022-07-29T18:40:24.269Z,19.78
2022-07-29T18:43:31.853Z,19.73
2022-07-29T18:46:32.121Z,19.65
2022-07-29T18:49:42.867Z,19.54
2022-07-29T18:52:46.767Z,19.48
2022-07-29T18:56:00.075Z,19.42
2022-07-29T18:59:17.152Z,19.38
2022-07-29T19:02:23.948Z,19.36
2022-07-29T19:05:31.893Z,19.29
2022-07-29T19:08:36.245Z,19.21
2022-07-29T19:11:46.803Z,19.14
2022-07-29T19:14:54.338Z,19.13
2022-07-29T19:18:12.706Z,19.03
2022-07-29T19:21:13.819Z,19.02
2022-07-29T19:24:22.952Z,18.95
2022-07-29T19:27:32.961Z,18.89
2022-07-29T19:30:41.066Z,18.87
2022-07-29T19:33:51.933Z,18.85
2022-07-29T19:37:20.657Z,18.73
2022-07-29T19:40:27.125Z,18.62
2022-07-29T19:43:51.528Z,18.54
2022-07-29T19:46:57.565Z,18.42
2022-07-29T19:50:09.067Z,18.43
2022-07-29T19:53:09.532Z,18.35
2022-07-29T19:56:42.359Z,18.26
2022-07-29T19:59:44.289Z,18.21
2022-07-29T20:02:57.605Z,18.13
2022-07-29T20:06:08.373Z,18.06
2022-07-29T20:09:17.072Z,18.04
2022-07-29T20:12:24.246Z,18.02
2022-07-29T20:19:13.934Z,17.91
2022-07-29T20:23:10.475Z,17.83
2022-07-29T20:26:29.128Z,17.82
2022-07-29T20:33:13.480Z,17.69
2022-07-29T20:40:27.435Z,17.55
2022-07-29T20:43:47.502Z,17.57
2022-07-29T20:46:53.548Z,17.51
2022-07-29T20:50:07.762Z,17.47
2022-07-29T20:53:25.869Z,17.48
2022-07-29T20:56:32.084Z,17.54
2022-07-29T20:59:55.176Z,17.42
2022-07-29T21:03:00.797Z,17.40
2022-07-29T21:06:15.272Z,17.41
2022-07-29T21:13:21.230Z,17.39
2022-07-29T21:16:32.130Z,17.39
2022-07-29T21:19:39.346Z,17.44
2022-07-29T21:22:51.742Z,17.33
2022-07-29T21:25:54.557Z,17.36
2022-07-29T21:29:05.954Z,17.38
2022-07-29T21:32:14.839Z,17.32
2022-07-29T21:36:06.658Z,17.30
2022-07-29T21:39:13.998Z,17.25
2022-07-29T21:42:41.565Z,17.26
2022-07-29T21:50:23.112Z,17.17
2022-07-29T21:53:26.967Z,17.18
2022-07-29T21:56:51.319Z,17.16
2022-07-29T22:00:15.926Z,17.08
2022-07-29T22:06:55.161Z,16.99
2022-07-29T22:10:06.244Z,16.92
2022-07-29T22:16:52.755Z,16.83
2022-07-29T22:20:09.790Z,16.73
2022-07-29T22:23:37.365Z,16.68
2022-07-29T22:26:37.297Z,16.65
2022-07-29T22:30:10.124Z,16.64
2022-07-29T22:33:17.624Z,16.67
2022-07-29T22:36:45.086Z,16.66
2022-07-29T22:40:05.988Z,16.70
2022-07-29T22:43:14.814Z,16.68
2022-07-29T22:46:36.688Z,16.67
2022-07-29T22:49:45.539Z,16.60
2022-07-29T22:56:35.776Z,16.62
2022-07-29T22:59:41.857Z,16.54
2022-07-29T23:02:58.849Z,16.47
2022-07-29T23:06:24.467Z,16.42
2022-07-29T23:09:35.974Z,16.38
2022-07-29T23:12:49.334Z,16.37
2022-07-29T23:16:08.209Z,16.25
2022-07-29T23:19:25.198Z,16.19
2022-07-29T23:22:41.600Z,16.13
2022-07-29T23:26:10.799Z,16.09
2022-07-29T23:29:18.563Z,16.08
2022-07-29T23:32:31.137Z,16.03
2022-07-29T23:35:36.201Z,16.06
2022-07-29T23:42:21.760Z,16.09
2022-07-29T23:45:42.874Z,16.09
2022-07-29T23:49:19.741Z,16.18
2022-07-29T23:52:36.990Z,16.30
2022-07-29T23:55:46.860Z,16.30
2022-07-29T23:58:52.627Z,16.32
